createdAt,value
2023-06-04T00:01:48.758Z,39.46
2023-06-04T00:04:34.820Z,39.82
2023-06-04T00:07:20.392Z,39.64
2023-06-04T00:10:09.537Z,39.49
2023-06-04T00:12:54.990Z,39.45
2023-06-04T00:15:40.948Z,39.57
2023-06-04T00:18:26.772Z,39.87
2023-06-04T00:21:12.057Z,40.15
2023-06-04T00:23:58.217Z,40.64
2023-06-04T00:26:44.067Z,40.91
2023-06-04T00:29:30.146Z,41.15
2023-06-04T00:32:15.939Z,41.28
2023-06-04T00:35:02.238Z,41.73
2023-06-04T00:37:47.976Z,41.76
2023-06-04T00:40:35.695Z,41.67
2023-06-04T00:43:21.118Z,41.89
2023-06-04T00:46:07.410Z,42.01
2023-06-04T00:48:53.521Z,42.18
2023-06-04T00:51:39.010Z,42.16
2023-06-04T00:54:25.226Z,42.08
2023-06-04T00:57:10.603Z,42.10
2023-06-04T00:59:56.325Z,42.32
2023-06-04T01:02:42.559Z,42.96
2023-06-04T01:05:32.967Z,43.57
2023-06-04T01:08:20.632Z,44.10
2023-06-04T01:11:06.670Z,44.60
2023-06-04T01:13:52.569Z,45.15
2023-06-04T01:16:51.593Z,45.60
2023-06-04T01:20:00.658Z,46.06
2023-06-04T01:23:01.201Z,46.22
2023-06-04T01:25:50.783Z,46.77
2023-06-04T01:28:36.934Z,47.19
2023-06-04T01:31:24.209Z,47.78
2023-06-04T01:34:09.708Z,47.95
2023-06-04T01:36:55.538Z,47.92
2023-06-04T01:39:41.716Z,47.77
2023-06-04T01:42:26.960Z,47.68
2023-06-04T01:45:12.435Z,47.41
2023-06-04T01:47:58.143Z,47.24
2023-06-04T01:50:43.606Z,47.08
2023-06-04T01:53:29.149Z,47.35
2023-06-04T01:56:15.503Z,47.23
2023-06-04T01:59:02.306Z,47.19
2023-06-04T02:01:48.028Z,47.27
2023-06-04T02:04:33.707Z,47.29
2023-06-04T02:07:21.542Z,47.31
2023-06-04T02:10:08.878Z,47.20
2023-06-04T02:12:57.000Z,47.31
2023-06-04T02:15:42.833Z,47.18
2023-06-04T02:18:29.024Z,47.36
2023-06-04T02:21:15.473Z,47.24
2023-06-04T02:24:01.120Z,47.14
2023-06-04T02:26:47.503Z,46.91
2023-06-04T02:29:33.492Z,46.78
2023-06-04T02:32:18.910Z,46.60
2023-06-04T02:35:05.032Z,46.77
2023-06-04T02:37:51.018Z,47.25
2023-06-04T02:40:37.230Z,47.63
2023-06-04T02:43:23.867Z,47.50
2023-06-04T02:46:09.504Z,47.54
2023-06-04T02:48:55.196Z,47.45
2023-06-04T02:51:49.569Z,47.84
2023-06-04T02:54:35.700Z,47.76
2023-06-04T02:57:23.021Z,48.15
2023-06-04T03:00:13.132Z,48.36
2023-06-04T03:03:02.533Z,48.71
2023-06-04T03:05:49.065Z,48.53
2023-06-04T03:08:34.437Z,47.13
2023-06-04T03:11:22.887Z,45.33
2023-06-04T03:14:08.695Z,44.00
2023-06-04T03:16:56.117Z,42.58
2023-06-04T03:19:43.091Z,41.38
2023-06-04T03:22:29.477Z,41.17
2023-06-04T03:25:15.134Z,40.85
2023-06-04T03:28:01.448Z,40.32
2023-06-04T03:30:47.139Z,39.46
2023-06-04T03:33:33.061Z,38.38
2023-06-04T03:36:20.044Z,37.02
2023-06-04T03:39:05.764Z,36.09
2023-06-04T03:41:51.813Z,35.34
2023-06-04T03:44:39.627Z,34.85
2023-06-04T03:47:26.376Z,34.26
2023-06-04T03:50:12.035Z,33.62
2023-06-04T03:52:57.779Z,33.02
2023-06-04T03:55:43.583Z,32.57
2023-06-04T03:58:29.798Z,31.62
2023-06-04T04:01:16.601Z,31.24
2023-06-04T04:04:02.142Z,31.26
2023-06-04T04:06:49.181Z,31.11
2023-06-04T04:09:35.647Z,30.49
2023-06-04T04:12:21.684Z,29.89
2023-06-04T04:15:09.631Z,29.32
2023-06-04T04:17:56.264Z,28.68
2023-06-04T04:20:43.396Z,28.39
2023-06-04T04:23:30.541Z,27.85
2023-06-04T04:26:18.027Z,27.37
2023-06-04T04:29:05.188Z,26.63
2023-06-04T04:31:54.470Z,26.30
2023-06-04T04:34:52.562Z,25.94
2023-06-04T04:37:39.802Z,25.52
2023-06-04T04:40:26.789Z,24.81
2023-06-04T04:43:13.395Z,23.86
2023-06-04T04:45:59.433Z,23.23
2023-06-04T04:48:45.364Z,23.02
2023-06-04T04:51:31.483Z,22.59
2023-06-04T04:54:17.033Z,22.36
2023-06-04T04:57:13.489Z,21.57
2023-06-04T05:00:01.277Z,21.45
2023-06-04T05:02:47.991Z,21.68
2023-06-04T05:05:34.304Z,21.88
2023-06-04T05:08:22.529Z,21.94
2023-06-04T05:11:11.671Z,21.97
2023-06-04T05:14:02.072Z,21.66
2023-06-04T05:16:51.664Z,21.40
2023-06-04T05:19:43.440Z,21.10
2023-06-04T05:22:33.370Z,20.89
2023-06-04T05:25:22.755Z,20.71
2023-06-04T05:28:14.408Z,20.52
2023-06-04T05:31:03.688Z,20.30
2023-06-04T05:33:54.429Z,20.22
2023-06-04T05:36:48.455Z,20.12
2023-06-04T05:39:39.521Z,20.05
2023-06-04T05:42:34.393Z,19.69
2023-06-04T05:45:23.449Z,19.68
2023-06-04T05:48:12.456Z,19.23
2023-06-04T05:51:01.694Z,19.18
2023-06-04T05:53:50.471Z,19.21
2023-06-04T05:56:39.456Z,19.28
2023-06-04T05:59:29.420Z,19.06
2023-06-04T06:02:19.063Z,18.82
2023-06-04T06:05:10.451Z,18.72
2023-06-04T06:15:49.830Z,17.75
2023-06-04T06:18:36.244Z,17.06
2023-06-04T06:21:22.179Z,16.76
2023-06-04T06:24:08.097Z,16.81
2023-06-04T06:26:54.294Z,16.65
2023-06-04T06:29:41.903Z,16.77
2023-06-04T06:32:28.367Z,16.51
2023-06-04T06:35:14.094Z,16.06
2023-06-04T06:37:59.892Z,15.63
2023-06-04T06:40:45.137Z,15.50
2023-06-04T06:43:31.008Z,15.50
2023-06-04T06:46:16.589Z,15.27
2023-06-04T06:49:02.099Z,15.03
2023-06-04T06:51:48.025Z,14.83
2023-06-04T06:54:33.604Z,14.79
2023-06-04T06:57:20.065Z,15.02
2023-06-04T07:00:07.110Z,14.88
2023-06-04T07:02:52.862Z,14.87
2023-06-04T07:05:38.945Z,14.93
2023-06-04T07:08:26.164Z,14.77
2023-06-04T07:11:14.483Z,14.99
2023-06-04T07:14:00.141Z,15.10
2023-06-04T07:16:45.983Z,15.30
2023-06-04T07:19:33.251Z,15.42
2023-06-04T07:22:18.777Z,15.68
2023-06-04T07:25:04.384Z,16.19
2023-06-04T07:27:51.726Z,16.66
2023-06-04T07:30:38.927Z,17.12
2023-06-04T07:33:27.032Z,17.28
2023-06-04T07:36:14.250Z,16.91
2023-06-04T07:39:00.340Z,17.16
2023-06-04T07:41:45.930Z,17.49
2023-06-04T07:44:31.459Z,17.79
2023-06-04T07:47:17.311Z,17.31
2023-06-04T07:50:03.717Z,17.18
2023-06-04T07:52:49.726Z,16.76
2023-06-04T07:55:36.358Z,16.40
2023-06-04T07:58:21.608Z,16.35
2023-06-04T08:01:07.632Z,16.25
2023-06-04T08:03:54.385Z,16.11
2023-06-04T08:06:40.838Z,16.20
2023-06-04T08:09:26.642Z,16.36
2023-06-04T08:12:12.400Z,16.66
2023-06-04T08:14:58.342Z,16.68
2023-06-04T08:17:44.478Z,16.70
2023-06-04T08:20:29.856Z,16.85
2023-06-04T08:23:15.313Z,16.76
2023-06-04T08:26:00.834Z,16.29
2023-06-04T08:28:50.178Z,16.10
2023-06-04T08:31:36.102Z,16.22
2023-06-04T08:34:21.766Z,16.23
2023-06-04T08:37:08.011Z,15.95
2023-06-04T08:39:54.182Z,15.79
2023-06-04T08:42:42.405Z,15.63
2023-06-04T08:45:28.192Z,15.52
2023-06-04T08:48:13.837Z,15.21
2023-06-04T08:50:59.399Z,15.02
2023-06-04T08:53:48.819Z,14.71
2023-06-04T08:56:35.376Z,14.91
2023-06-04T08:59:23.368Z,15.33
2023-06-04T09:02:09.476Z,15.57
2023-06-04T09:04:55.154Z,15.72
2023-06-04T09:07:43.865Z,15.49
2023-06-04T09:10:31.236Z,15.58
2023-06-04T09:13:17.174Z,15.65
2023-06-04T09:16:04.083Z,15.56
2023-06-04T09:18:49.643Z,15.83
2023-06-04T09:21:35.094Z,15.68
2023-06-04T09:24:22.078Z,15.19
2023-06-04T09:27:14.890Z,15.72
2023-06-04T09:30:01.350Z,15.78
2023-06-04T09:32:46.904Z,15.72
2023-06-04T09:35:32.765Z,15.69
2023-06-04T09:38:18.466Z,15.80
2023-06-04T09:41:07.785Z,15.99
2023-06-04T09:44:04.132Z,16.13
2023-06-04T09:46:56.897Z,16.07
2023-06-04T09:49:48.761Z,15.98
2023-06-04T09:52:36.081Z,15.82
2023-06-04T09:55:23.370Z,15.55
2023-06-04T09:58:08.792Z,15.50
2023-06-04T10:00:55.110Z,15.59
2023-06-04T10:03:40.608Z,15.57
2023-06-04T10:06:26.116Z,15.90
2023-06-04T10:09:12.301Z,15.72
2023-06-04T10:11:58.323Z,15.89
2023-06-04T10:15:00.265Z,15.72
2023-06-04T10:17:46.210Z,15.82
2023-06-04T10:20:33.772Z,15.91
2023-06-04T10:23:21.445Z,15.59
2023-06-04T10:26:07.541Z,15.68
2023-06-04T10:28:53.027Z,15.84
2023-06-04T10:31:38.780Z,15.94
2023-06-04T10:34:24.298Z,16.15
2023-06-04T10:37:22.979Z,16.42
2023-06-04T10:40:09.840Z,16.30
2023-06-04T10:42:55.170Z,16.40
2023-06-04T10:45:41.532Z,16.77
2023-06-04T10:48:27.387Z,17.07
2023-06-04T10:51:13.091Z,17.67
2023-06-04T10:53:59.275Z,18.02
2023-06-04T10:56:44.549Z,18.40
2023-06-04T10:59:30.103Z,18.83
2023-06-04T11:02:15.740Z,19.26
2023-06-04T11:05:10.932Z,19.36
2023-06-04T11:07:56.460Z,19.28
2023-06-04T11:10:43.716Z,19.30
2023-06-04T11:13:30.784Z,19.85
2023-06-04T11:16:20.743Z,19.98
2023-06-04T11:19:06.496Z,20.63
2023-06-04T11:21:52.094Z,20.33
2023-06-04T11:24:37.535Z,20.22
2023-06-04T11:27:35.658Z,20.07
2023-06-04T11:30:22.994Z,20.28
2023-06-04T11:33:08.865Z,19.75
2023-06-04T11:35:54.726Z,19.82
2023-06-04T11:38:40.348Z,19.51
2023-06-04T11:41:32.671Z,19.15
2023-06-04T11:44:21.757Z,19.32
2023-06-04T11:47:07.809Z,18.85
2023-06-04T11:49:57.259Z,18.51
2023-06-04T11:52:43.208Z,18.31
2023-06-04T11:55:29.128Z,18.42
2023-06-04T11:58:14.750Z,18.60
2023-06-04T12:01:00.943Z,18.47
2023-06-04T12:03:46.401Z,18.60
2023-06-04T12:06:32.327Z,18.77
2023-06-04T12:09:22.616Z,19.00
2023-06-04T12:12:08.826Z,19.18
2023-06-04T12:15:00.978Z,19.19
2023-06-04T12:17:53.489Z,18.89
2023-06-04T12:20:40.390Z,19.11
2023-06-04T12:23:26.332Z,19.15
2023-06-04T12:26:29.641Z,19.00
2023-06-04T12:29:15.990Z,19.31
2023-06-04T12:32:12.928Z,19.49
2023-06-04T12:34:58.997Z,19.44
2023-06-04T12:37:44.336Z,19.06
2023-06-04T12:40:30.615Z,18.96
2023-06-04T12:43:16.395Z,18.95
2023-06-04T12:46:02.205Z,19.13
2023-06-04T12:48:48.098Z,19.35
2023-06-04T12:51:33.466Z,19.73
2023-06-04T12:54:19.073Z,19.07
2023-06-04T12:57:04.628Z,19.23
2023-06-04T12:59:50.292Z,19.23
2023-06-04T13:02:37.110Z,19.60
2023-06-04T13:05:22.782Z,19.77
2023-06-04T13:08:10.145Z,19.65
2023-06-04T13:10:58.572Z,19.25
2023-06-04T13:13:47.452Z,19.12
2023-06-04T13:16:37.461Z,19.02
2023-06-04T13:19:27.945Z,18.46
2023-06-04T13:22:16.428Z,17.71
2023-06-04T13:25:05.121Z,17.66
2023-06-04T13:27:54.428Z,17.46
2023-06-04T13:30:43.538Z,17.67
2023-06-04T13:33:35.435Z,17.78
2023-06-04T13:36:24.255Z,17.78
2023-06-04T13:39:13.468Z,17.77
2023-06-04T13:42:03.436Z,18.39
2023-06-04T13:44:52.468Z,18.18
2023-06-04T13:47:41.414Z,18.36
2023-06-04T13:50:31.454Z,18.48
2023-06-04T13:53:21.558Z,18.35
2023-06-04T13:56:10.472Z,18.48
2023-06-04T13:58:58.433Z,18.48
2023-06-04T14:01:47.550Z,18.21
2023-06-04T14:04:36.971Z,17.70
2023-06-04T14:15:13.810Z,17.78
2023-06-04T14:17:59.620Z,17.70
2023-06-04T14:20:45.883Z,17.84
2023-06-04T14:23:32.138Z,17.73
2023-06-04T14:26:19.080Z,17.50
2023-06-04T14:29:04.632Z,17.74
2023-06-04T14:31:50.505Z,17.84
2023-06-04T14:34:36.567Z,18.17
2023-06-04T14:37:22.728Z,18.26
2023-06-04T14:40:09.620Z,18.10
